sensor_id;sensor_type;location;lat;lon;timestamp;pressure;altitude;pressure_sealevel;temperature;humidity
73824;BME280;62154;54.914;73.444;2022-12-07T00:01:51;102691.75;;;-15.54;76.90
73824;BME280;62154;54.914;73.444;2022-12-07T00:04:19;102697.06;;;-15.49;77.12
73824;BME280;62154;54.914;73.444;2022-12-07T00:06:52;102684.66;;;-15.53;77.44
73824;BME280;62154;54.914;73.444;2022-12-07T00:09:19;102697.09;;;-15.43;77.23
73824;BME280;62154;54.914;73.444;2022-12-07T00:11:52;102680.25;;;-15.48;77.09
73824;BME280;62154;54.914;73.444;2022-12-07T00:14:20;102629.66;;;-15.76;77.38
73824;BME280;62154;54.914;73.444;2022-12-07T00:16:49;102692.69;;;-15.39;77.19
73824;BME280;62154;54.914;73.444;2022-12-07T00:19:17;102702.44;;;-15.35;76.99
73824;BME280;62154;54.914;73.444;2022-12-07T00:21:44;102704.19;;;-15.39;77.20
73824;BME280;62154;54.914;73.444;2022-12-07T00:24:16;102695.31;;;-15.38;77.12
73824;BME280;62154;54.914;73.444;2022-12-07T00:26:44;102703.31;;;-15.36;77.47
73824;BME280;62154;54.914;73.444;2022-12-07T00:29:17;102694.47;;;-15.38;77.46
73824;BME280;62154;54.914;73.444;2022-12-07T00:31:45;102606.63;;;-15.83;77.35
73824;BME280;62154;54.914;73.444;2022-12-07T00:34:18;102710.44;;;-15.21;77.23
73824;BME280;62154;54.914;73.444;2022-12-07T00:36:47;102649.19;;;-15.55;77.21
73824;BME280;62154;54.914;73.444;2022-12-07T00:39:24;102695.34;;;-15.22;77.27
73824;BME280;62154;54.914;73.444;2022-12-07T00:41:51;102643.00;;;-15.50;77.47
73824;BME280;62154;54.914;73.444;2022-12-07T00:44:19;102682.94;;;-15.30;77.12
73824;BME280;62154;54.914;73.444;2022-12-07T00:46:46;102711.34;;;-15.10;77.25
73824;BME280;62154;54.914;73.444;2022-12-07T00:49:16;102721.13;;;-15.01;77.28
73824;BME280;62154;54.914;73.444;2022-12-07T00:51:44;102712.22;;;-15.03;77.12
73824;BME280;62154;54.914;73.444;2022-12-07T00:54:11;102719.38;;;-14.93;77.29
73824;BME280;62154;54.914;73.444;2022-12-07T00:56:38;102717.59;;;-14.96;76.95
73824;BME280;62154;54.914;73.444;2022-12-07T00:59:06;102567.63;;;-15.72;77.27
73824;BME280;62154;54.914;73.444;2022-12-07T01:01:35;102693.59;;;-15.05;77.10
73824;BME280;62154;54.914;73.444;2022-12-07T01:04:04;102711.34;;;-14.95;77.19
73824;BME280;62154;54.914;73.444;2022-12-07T01:06:32;102699.81;;;-15.01;77.27
73824;BME280;62154;54.914;73.444;2022-12-07T01:09:00;102705.16;;;-14.90;77.55
73824;BME280;62154;54.914;73.444;2022-12-07T01:11:29;102641.28;;;-15.23;77.26
73824;BME280;62154;54.914;73.444;2022-12-07T01:13:58;102697.16;;;-14.92;77.63
73824;BME280;62154;54.914;73.444;2022-12-07T01:16:27;102707.81;;;-14.81;77.31
73824;BME280;62154;54.914;73.444;2022-12-07T01:18:55;102701.59;;;-14.83;77.31
73824;BME280;62154;54.914;73.444;2022-12-07T01:21:25;102643.06;;;-15.16;77.17
73824;BME280;62154;54.914;73.444;2022-12-07T01:23:53;102691.84;;;-14.87;77.13
73824;BME280;62154;54.914;73.444;2022-12-07T01:26:22;102708.72;;;-14.85;77.20
73824;BME280;62154;54.914;73.444;2022-12-07T01:28:51;102617.34;;;-15.26;77.08
73824;BME280;62154;54.914;73.444;2022-12-07T01:31:23;102695.38;;;-14.82;77.08
73824;BME280;62154;54.914;73.444;2022-12-07T01:33:53;102698.94;;;-14.80;76.56
73824;BME280;62154;54.914;73.444;2022-12-07T01:36:26;102613.78;;;-15.27;76.33
73824;BME280;62154;54.914;73.444;2022-12-07T01:38:57;102696.28;;;-14.77;76.27
73824;BME280;62154;54.914;73.444;2022-12-07T01:41:28;102695.41;;;-14.76;76.54
73824;BME280;62154;54.914;73.444;2022-12-07T01:44:17;102674.97;;;-14.89;75.95
73824;BME280;62154;54.914;73.444;2022-12-07T01:46:57;102684.75;;;-14.82;76.21
73824;BME280;62154;54.914;73.444;2022-12-07T01:54:39;102691.84;;;-14.89;76.27
73824;BME280;62154;54.914;73.444;2022-12-07T01:57:08;102692.75;;;-14.85;76.34
73824;BME280;62154;54.914;73.444;2022-12-07T01:59:36;102697.16;;;-14.87;76.16
73824;BME280;62154;54.914;73.444;2022-12-07T02:02:20;102619.97;;;-15.31;75.71
73824;BME280;62154;54.914;73.444;2022-12-07T02:04:51;102617.31;;;-15.34;75.99
73824;BME280;62154;54.914;73.444;2022-12-07T02:07:27;102688.28;;;-14.93;76.08
73824;BME280;62154;54.914;73.444;2022-12-07T02:10:21;102692.75;;;-14.93;76.03
73824;BME280;62154;54.914;73.444;2022-12-07T02:12:53;102698.03;;;-14.87;75.76
73824;BME280;62154;54.914;73.444;2022-12-07T02:21:21;102665.22;;;-15.07;76.12
73824;BME280;62154;54.914;73.444;2022-12-07T02:23:57;102688.28;;;-15.00;76.00
73824;BME280;62154;54.914;73.444;2022-12-07T02:29:44;102682.94;;;-15.03;75.95
73824;BME280;62154;54.914;73.444;2022-12-07T02:35:33;102684.72;;;-15.01;76.20
73824;BME280;62154;54.914;73.444;2022-12-07T02:38:39;102683.84;;;-15.03;75.89
73824;BME280;62154;54.914;73.444;2022-12-07T02:43:52;102613.75;;;-15.54;76.04
73824;BME280;62154;54.914;73.444;2022-12-07T02:46:24;102691.84;;;-15.11;76.05
73824;BME280;62154;54.914;73.444;2022-12-07T02:48:54;102685.63;;;-15.14;76.34
73824;BME280;62154;54.914;73.444;2022-12-07T02:51:31;102688.28;;;-15.14;76.32
73824;BME280;62154;54.914;73.444;2022-12-07T02:53:59;102687.41;;;-15.13;76.42
73824;BME280;62154;54.914;73.444;2022-12-07T02:59:20;102633.25;;;-15.54;76.31
73824;BME280;62154;54.914;73.444;2022-12-07T03:07:29;102713.13;;;-15.12;76.60
73824;BME280;62154;54.914;73.444;2022-12-07T03:16:28;102702.50;;;-15.12;75.92
73824;BME280;62154;54.914;73.444;2022-12-07T03:18:51;102695.34;;;-15.29;75.73
73824;BME280;62154;54.914;73.444;2022-12-07T03:21:27;102679.38;;;-15.38;76.43
73824;BME280;62154;54.914;73.444;2022-12-07T03:24:14;102687.34;;;-15.47;75.94
73824;BME280;62154;54.914;73.444;2022-12-07T03:27:03;102573.81;;;-16.05;76.01
73824;BME280;62154;54.914;73.444;2022-12-07T03:29:43;102695.34;;;-15.32;76.14
73824;BME280;62154;54.914;73.444;2022-12-07T03:32:22;102707.78;;;-15.23;76.14
73824;BME280;62154;54.914;73.444;2022-12-07T03:37:43;102703.34;;;-15.27;75.90
73824;BME280;62154;54.914;73.444;2022-12-07T03:40:39;102621.66;;;-15.73;76.13
73824;BME280;62154;54.914;73.444;2022-12-07T03:43:07;102558.75;;;-16.10;75.94
73824;BME280;62154;54.914;73.444;2022-12-07T03:45:43;102704.22;;;-15.27;75.87
73824;BME280;62154;54.914;73.444;2022-12-07T03:48:25;102702.47;;;-15.24;75.98
73824;BME280;62154;54.914;73.444;2022-12-07T03:53:38;102693.56;;;-15.33;75.84
73824;BME280;62154;54.914;73.444;2022-12-07T03:56:07;102710.41;;;-15.43;75.99
73824;BME280;62154;54.914;73.444;2022-12-07T03:58:46;102698.88;;;-15.42;76.17
73824;BME280;62154;54.914;73.444;2022-12-07T04:01:14;102690.84;;;-15.53;75.97
73824;BME280;62154;54.914;73.444;2022-12-07T04:03:42;102622.56;;;-15.86;75.83
73824;BME280;62154;54.914;73.444;2022-12-07T04:06:09;102693.53;;;-15.47;75.99
73824;BME280;62154;54.914;73.444;2022-12-07T04:08:36;102720.16;;;-15.39;75.79
73824;BME280;62154;54.914;73.444;2022-12-07T04:11:03;102682.88;;;-15.56;75.84
73824;BME280;62154;54.914;73.444;2022-12-07T04:13:31;102720.19;;;-15.36;75.92
73824;BME280;62154;54.914;73.444;2022-12-07T04:16:24;102707.75;;;-15.40;75.50
73824;BME280;62154;54.914;73.444;2022-12-07T04:19:02;102687.31;;;-15.53;75.53
73824;BME280;62154;54.914;73.444;2022-12-07T04:21:29;102711.28;;;-15.39;75.46
73824;BME280;62154;54.914;73.444;2022-12-07T04:23:56;102703.28;;;-15.43;75.41
73824;BME280;62154;54.914;73.444;2022-12-07T04:26:23;102683.81;;;-15.45;75.53
73824;BME280;62154;54.914;73.444;2022-12-07T04:28:53;102716.63;;;-15.29;75.28
73824;BME280;62154;54.914;73.444;2022-12-07T04:31:23;102712.19;;;-15.34;74.76
73824;BME280;62154;54.914;73.444;2022-12-07T04:33:55;102711.28;;;-15.38;74.74
73824;BME280;62154;54.914;73.444;2022-12-07T04:36:22;102684.66;;;-15.52;74.93
73824;BME280;62154;54.914;73.444;2022-12-07T04:38:49;102640.28;;;-15.79;74.23
73824;BME280;62154;54.914;73.444;2022-12-07T04:41:19;102636.75;;;-15.87;74.34
73824;BME280;62154;54.914;73.444;2022-12-07T04:44:00;102703.28;;;-15.44;74.58
73824;BME280;62154;54.914;73.444;2022-12-07T04:46:29;102707.72;;;-15.43;74.98
73824;BME280;62154;54.914;73.444;2022-12-07T04:48:57;102703.28;;;-15.44;74.51
73824;BME280;62154;54.914;73.444;2022-12-07T04:51:26;102630.53;;;-15.91;74.58
73824;BME280;62154;54.914;73.444;2022-12-07T04:53:55;102699.75;;;-15.42;74.75
73824;BME280;62154;54.914;73.444;2022-12-07T04:56:24;102708.63;;;-15.44;74.68
73824;BME280;62154;54.914;73.444;2022-12-07T04:58:53;102700.63;;;-15.44;74.52
73824;BME280;62154;54.914;73.444;2022-12-07T05:01:22;102705.94;;;-15.44;74.44
73824;BME280;62154;54.914;73.444;2022-12-07T05:03:49;102710.41;;;-15.45;74.58
73824;BME280;62154;54.914;73.444;2022-12-07T05:06:19;102631.44;;;-15.89;74.12
73824;BME280;62154;54.914;73.444;2022-12-07T05:08:47;102708.59;;;-15.43;74.78
73824;BME280;62154;54.914;73.444;2022-12-07T05:11:24;102634.13;;;-15.84;74.52
73824;BME280;62154;54.914;73.444;2022-12-07T05:14:17;102727.28;;;-15.32;74.54
73824;BME280;62154;54.914;73.444;2022-12-07T05:16:47;102717.53;;;-15.25;74.59
73824;BME280;62154;54.914;73.444;2022-12-07T05:19:18;102736.16;;;-15.19;74.51
73824;BME280;62154;54.914;73.444;2022-12-07T05:21:46;102706.00;;;-15.26;74.43
73824;BME280;62154;54.914;73.444;2022-12-07T05:24:15;102648.31;;;-15.57;74.47
73824;BME280;62154;54.914;73.444;2022-12-07T05:26:52;102723.78;;;-15.09;74.45
73824;BME280;62154;54.914;73.444;2022-12-07T05:29:20;102722.00;;;-15.07;74.48
73824;BME280;62154;54.914;73.444;2022-12-07T05:31:47;102715.78;;;-15.06;74.44
73824;BME280;62154;54.914;73.444;2022-12-07T05:34:14;102712.22;;;-15.03;74.44
73824;BME280;62154;54.914;73.444;2022-12-07T05:36:42;102718.47;;;-15.03;74.32
73824;BME280;62154;54.914;73.444;2022-12-07T05:39:10;102706.94;;;-15.10;74.36
73824;BME280;62154;54.914;73.444;2022-12-07T05:41:37;102628.81;;;-15.55;74.57
73824;BME280;62154;54.914;73.444;2022-12-07T05:44:46;102690.94;;;-15.16;74.95
73824;BME280;62154;54.914;73.444;2022-12-07T05:47:15;102707.81;;;-15.00;74.93
73824;BME280;62154;54.914;73.444;2022-12-07T05:49:42;102699.81;;;-15.03;74.65
73824;BME280;62154;54.914;73.444;2022-12-07T05:52:09;102695.38;;;-15.10;74.46
73824;BME280;62154;54.914;73.444;2022-12-07T05:54:46;102689.19;;;-15.01;74.75
73824;BME280;62154;54.914;73.444;2022-12-07T05:57:14;102688.28;;;-15.00;74.82
73824;BME280;62154;54.914;73.444;2022-12-07T05:59:41;102607.56;;;-15.47;74.35
73824;BME280;62154;54.914;73.444;2022-12-07T06:02:13;102672.31;;;-15.11;74.63
73824;BME280;62154;54.914;73.444;2022-12-07T06:04:45;102678.53;;;-15.04;74.96
73824;BME280;62154;54.914;73.444;2022-12-07T06:07:15;102679.44;;;-14.98;74.50
73824;BME280;62154;54.914;73.444;2022-12-07T06:09:43;102675.88;;;-14.94;74.60
73824;BME280;62154;54.914;73.444;2022-12-07T06:12:13;102676.75;;;-14.95;74.59
73824;BME280;62154;54.914;73.444;2022-12-07T06:15:04;102675.88;;;-15.09;74.82
73824;BME280;62154;54.914;73.444;2022-12-07T06:17:41;102673.19;;;-15.00;74.65
73824;BME280;62154;54.914;73.444;2022-12-07T06:20:13;102668.75;;;-15.01;74.55
73824;BME280;62154;54.914;73.444;2022-12-07T06:22:45;102664.31;;;-15.05;74.94
73824;BME280;62154;54.914;73.444;2022-12-07T06:25:23;102664.31;;;-15.05;74.98
73824;BME280;62154;54.914;73.444;2022-12-07T06:27:50;102656.38;;;-15.02;75.07
73824;BME280;62154;54.914;73.444;2022-12-07T06:30:19;102663.44;;;-14.95;75.13
73824;BME280;62154;54.914;73.444;2022-12-07T06:32:51;102657.25;;;-14.87;74.98
73824;BME280;62154;54.914;73.444;2022-12-07T06:35:18;102670.53;;;-14.86;74.73
73824;BME280;62154;54.914;73.444;2022-12-07T06:37:56;102652.78;;;-14.82;74.91
73824;BME280;62154;54.914;73.444;2022-12-07T06:40:33;102660.78;;;-14.82;74.81
73824;BME280;62154;54.914;73.444;2022-12-07T06:43:11;102574.75;;;-15.29;74.79
73824;BME280;62154;54.914;73.444;2022-12-07T06:45:38;102523.34;;;-15.54;74.84
73824;BME280;62154;54.914;73.444;2022-12-07T06:48:05;102627.97;;;-14.95;74.80
73824;BME280;62154;54.914;73.444;2022-12-07T06:50:33;102648.38;;;-14.82;74.87
73824;BME280;62154;54.914;73.444;2022-12-07T06:53:10;102659.91;;;-14.89;74.85
73824;BME280;62154;54.914;73.444;2022-12-07T06:55:37;102584.50;;;-15.33;74.87
73824;BME280;62154;54.914;73.444;2022-12-07T06:58:05;102657.25;;;-14.89;75.19
73824;BME280;62154;54.914;73.444;2022-12-07T07:00:45;102596.94;;;-15.26;74.82
73824;BME280;62154;54.914;73.444;2022-12-07T07:03:18;102570.31;;;-15.33;75.17
73824;BME280;62154;54.914;73.444;2022-12-07T07:05:51;102645.69;;;-14.97;75.25
73824;BME280;62154;54.914;73.444;2022-12-07T07:08:22;102655.47;;;-14.79;75.31
73824;BME280;62154;54.914;73.444;2022-12-07T07:10:53;102642.16;;;-14.79;75.15
73824;BME280;62154;54.914;73.444;2022-12-07T07:13:30;102665.22;;;-14.69;75.36
73824;BME280;62154;54.914;73.444;2022-12-07T07:15:58;102653.63;;;-14.63;75.15
73824;BME280;62154;54.914;73.444;2022-12-07T07:18:26;102669.66;;;-14.66;74.76
73824;BME280;62154;54.914;73.444;2022-12-07T07:20:54;102652.75;;;-14.64;74.87
73824;BME280;62154;54.914;73.444;2022-12-07T07:23:21;102648.31;;;-14.58;74.85
73824;BME280;62154;54.914;73.444;2022-12-07T07:25:58;102650.06;;;-14.56;74.55
73824;BME280;62154;54.914;73.444;2022-12-07T07:28:26;102628.75;;;-14.61;74.60
73824;BME280;62154;54.914;73.444;2022-12-07T07:30:53;102643.81;;;-14.43;74.88
73824;BME280;62154;54.914;73.444;2022-12-07T07:33:26;102642.03;;;-14.34;74.81
73824;BME280;62154;54.914;73.444;2022-12-07T07:35:53;102560.47;;;-14.71;74.87
73824;BME280;62154;54.914;73.444;2022-12-07T07:38:20;102631.34;;;-14.23;74.88
73824;BME280;62154;54.914;73.444;2022-12-07T07:40:47;102559.50;;;-14.56;74.69
73824;BME280;62154;54.914;73.444;2022-12-07T07:43:15;102542.69;;;-14.63;74.27
73824;BME280;62154;54.914;73.444;2022-12-07T07:45:42;102632.13;;;-14.06;74.06
73824;BME280;62154;54.914;73.444;2022-12-07T07:48:10;102634.84;;;-14.09;74.17
73824;BME280;62154;54.914;73.444;2022-12-07T07:50:37;102629.47;;;-14.06;74.26
73824;BME280;62154;54.914;73.444;2022-12-07T07:53:05;102617.94;;;-14.06;74.27
73824;BME280;62154;54.914;73.444;2022-12-07T07:55:32;102609.94;;;-14.11;74.32
73824;BME280;62154;54.914;73.444;2022-12-07T07:58:01;102612.66;;;-14.16;74.11
73824;BME280;62154;54.914;73.444;2022-12-07T08:00:29;102532.88;;;-14.59;74.17
73824;BME280;62154;54.914;73.444;2022-12-07T08:02:56;102632.19;;;-14.15;74.02
73824;BME280;62154;54.914;73.444;2022-12-07T08:05:23;102626.81;;;-14.07;74.50
73824;BME280;62154;54.914;73.444;2022-12-07T08:07:50;102622.34;;;-13.99;74.62
73824;BME280;62154;54.914;73.444;2022-12-07T08:10:18;102611.72;;;-14.07;74.39
73824;BME280;62154;54.914;73.444;2022-12-07T08:12:45;102619.69;;;-14.02;74.35
73824;BME280;62154;54.914;73.444;2022-12-07T08:15:38;102547.91;;;-14.44;74.39
73824;BME280;62154;54.914;73.444;2022-12-07T08:18:05;102624.09;;;-13.95;74.48
73824;BME280;62154;54.914;73.444;2022-12-07T08:20:34;102625.00;;;-14.01;74.22
73824;BME280;62154;54.914;73.444;2022-12-07T08:23:02;102603.72;;;-14.10;74.24
73824;BME280;62154;54.914;73.444;2022-12-07T08:25:29;102611.69;;;-14.01;74.55
73824;BME280;62154;54.914;73.444;2022-12-07T08:27:57;102614.34;;;-13.98;74.53
73824;BME280;62154;54.914;73.444;2022-12-07T08:30:24;102540.78;;;-14.39;74.65
73824;BME280;62154;54.914;73.444;2022-12-07T08:32:55;102615.25;;;-13.96;74.84
73824;BME280;62154;54.914;73.444;2022-12-07T08:35:23;102611.69;;;-13.98;74.95
73824;BME280;62154;54.914;73.444;2022-12-07T08:37:51;102623.22;;;-13.92;74.95
73824;BME280;62154;54.914;73.444;2022-12-07T08:40:18;102535.47;;;-14.36;74.66
73824;BME280;62154;54.914;73.444;2022-12-07T08:42:51;102539.00;;;-14.37;74.44
73824;BME280;62154;54.914;73.444;2022-12-07T08:45:28;102593.97;;;-14.08;74.81
73824;BME280;62154;54.914;73.444;2022-12-07T08:48:06;102609.00;;;-13.98;74.98
73824;BME280;62154;54.914;73.444;2022-12-07T08:50:34;102608.13;;;-14.00;74.73
73824;BME280;62154;54.914;73.444;2022-12-07T08:53:04;102593.88;;;-13.97;75.13
73824;BME280;62154;54.914;73.444;2022-12-07T08:55:33;102606.25;;;-13.82;74.85
73824;BME280;62154;54.914;73.444;2022-12-07T08:58:02;102520.34;;;-14.34;74.69
73824;BME280;62154;54.914;73.444;2022-12-07T09:00:30;102581.44;;;-13.94;74.85
73824;BME280;62154;54.914;73.444;2022-12-07T09:03:02;102601.84;;;-13.85;74.83
73824;BME280;62154;54.914;73.444;2022-12-07T09:05:32;102583.25;;;-13.96;74.88
73824;BME280;62154;54.914;73.444;2022-12-07T09:08:03;102601.78;;;-13.77;74.97
73824;BME280;62154;54.914;73.444;2022-12-07T09:10:32;102611.53;;;-13.73;74.73
73824;BME280;62154;54.914;73.444;2022-12-07T09:12:59;102622.22;;;-13.74;74.91
73824;BME280;62154;54.914;73.444;2022-12-07T09:15:30;102605.34;;;-13.78;74.84
73824;BME280;62154;54.914;73.444;2022-12-07T09:17:58;102604.44;;;-13.74;74.98
73824;BME280;62154;54.914;73.444;2022-12-07T09:20:26;102609.81;;;-13.83;74.54
73824;BME280;62154;54.914;73.444;2022-12-07T09:22:53;102603.59;;;-13.84;74.52
73824;BME280;62154;54.914;73.444;2022-12-07T09:25:20;102589.44;;;-13.94;74.67
73824;BME280;62154;54.914;73.444;2022-12-07T09:27:48;102542.50;;;-14.29;74.92
73824;BME280;62154;54.914;73.444;2022-12-07T09:30:15;102609.78;;;-13.75;74.60
73824;BME280;62154;54.914;73.444;2022-12-07T09:32:55;102609.75;;;-13.68;74.62
73824;BME280;62154;54.914;73.444;2022-12-07T09:35:26;102603.50;;;-13.64;74.27
73824;BME280;62154;54.914;73.444;2022-12-07T09:37:53;102597.28;;;-13.70;73.94
73824;BME280;62154;54.914;73.444;2022-12-07T09:40:22;102588.47;;;-13.79;74.10
73824;BME280;62154;54.914;73.444;2022-12-07T09:43:04;102599.13;;;-13.77;74.07
73824;BME280;62154;54.914;73.444;2022-12-07T09:45:35;102563.72;;;-13.99;74.33
73824;BME280;62154;54.914;73.444;2022-12-07T09:48:17;102582.34;;;-13.96;74.58
73824;BME280;62154;54.914;73.444;2022-12-07T09:50:47;102517.66;;;-14.34;74.62
73824;BME280;62154;54.914;73.444;2022-12-07T09:55:56;102603.66;;;-13.91;74.94
73824;BME280;62154;54.914;73.444;2022-12-07T09:58:26;102599.19;;;-13.91;74.88
73824;BME280;62154;54.914;73.444;2022-12-07T10:01:12;102600.06;;;-13.86;74.65
73824;BME280;62154;54.914;73.444;2022-12-07T10:03:52;102582.34;;;-13.93;74.91
73824;BME280;62154;54.914;73.444;2022-12-07T10:06:30;102590.25;;;-13.82;75.20
73824;BME280;62154;54.914;73.444;2022-12-07T10:09:00;102592.03;;;-13.81;75.37
73824;BME280;62154;54.914;73.444;2022-12-07T10:11:29;102501.69;;;-14.31;74.98
73824;BME280;62154;54.914;73.444;2022-12-07T10:14:11;102584.97;;;-13.85;75.13
73824;BME280;62154;54.914;73.444;2022-12-07T10:16:41;102574.25;;;-13.82;75.12
73824;BME280;62154;54.914;73.444;2022-12-07T10:22:04;102587.53;;;-13.74;74.96
73824;BME280;62154;54.914;73.444;2022-12-07T10:24:37;102591.97;;;-13.67;74.83
73824;BME280;62154;54.914;73.444;2022-12-07T10:27:30;102579.59;;;-13.79;74.03
73824;BME280;62154;54.914;73.444;2022-12-07T10:30:08;102507.88;;;-14.30;74.04
73824;BME280;62154;54.914;73.444;2022-12-07T10:32:45;102505.25;;;-14.36;73.90
73824;BME280;62154;54.914;73.444;2022-12-07T10:35:21;102594.75;;;-13.94;73.94
73824;BME280;62154;54.914;73.444;2022-12-07T10:37:58;102583.28;;;-14.05;74.03
73824;BME280;62154;54.914;73.444;2022-12-07T10:48:23;102580.66;;;-14.09;74.28
73824;BME280;62154;54.914;73.444;2022-12-07T10:56:47;102582.31;;;-13.95;73.66
73824;BME280;62154;54.914;73.444;2022-12-07T11:05:39;102577.97;;;-14.13;73.61
73824;BME280;62154;54.914;73.444;2022-12-07T11:16:43;102582.44;;;-14.12;73.39
73824;BME280;62154;54.914;73.444;2022-12-07T11:30:24;102567.38;;;-14.22;72.57
73824;BME280;62154;54.914;73.444;2022-12-07T11:35:42;102568.28;;;-14.26;71.99
73824;BME280;62154;54.914;73.444;2022-12-07T11:39:04;102577.16;;;-14.25;71.79
73824;BME280;62154;54.914;73.444;2022-12-07T11:41:13;102563.81;;;-14.29;71.81
73824;BME280;62154;54.914;73.444;2022-12-07T11:43:56;102573.63;;;-14.34;71.65
73824;BME280;62154;54.914;73.444;2022-12-07T11:46:36;102489.53;;;-14.84;71.19
73824;BME280;62154;54.914;73.444;2022-12-07T11:49:23;102558.53;;;-14.36;71.64
73824;BME280;62154;54.914;73.444;2022-12-07T11:51:57;102530.19;;;-14.54;71.95
73824;BME280;62154;54.914;73.444;2022-12-07T11:54:33;102564.78;;;-14.42;71.87
73824;BME280;62154;54.914;73.444;2022-12-07T11:57:07;102551.47;;;-14.44;71.81
73824;BME280;62154;54.914;73.444;2022-12-07T11:59:41;102558.53;;;-14.32;72.03
73824;BME280;62154;54.914;73.444;2022-12-07T12:02:23;102570.03;;;-14.27;71.83
73824;BME280;62154;54.914;73.444;2022-12-07T12:05:03;102563.81;;;-14.29;72.17
73824;BME280;62154;54.914;73.444;2022-12-07T12:07:33;102562.09;;;-14.30;72.45
73824;BME280;62154;54.914;73.444;2022-12-07T12:10:29;102543.44;;;-14.39;72.08
73824;BME280;62154;54.914;73.444;2022-12-07T12:13:33;102554.13;;;-14.36;72.30
73824;BME280;62154;54.914;73.444;2022-12-07T12:16:31;102547.91;;;-14.39;72.30
73824;BME280;62154;54.914;73.444;2022-12-07T12:21:58;102553.22;;;-14.43;71.87
73824;BME280;62154;54.914;73.444;2022-12-07T12:24:31;102495.72;;;-14.82;71.81
73824;BME280;62154;54.914;73.444;2022-12-07T12:27:08;102564.81;;;-14.48;72.00
73824;BME280;62154;54.914;73.444;2022-12-07T12:29:39;102548.84;;;-14.53;71.91
73824;BME280;62154;54.914;73.444;2022-12-07T12:32:19;102557.75;;;-14.58;71.92
73824;BME280;62154;54.914;73.444;2022-12-07T12:42:49;102557.78;;;-14.65;72.33
73824;BME280;62154;54.914;73.444;2022-12-07T12:45:32;102560.47;;;-14.68;72.58
73824;BME280;62154;54.914;73.444;2022-12-07T12:48:35;102564.94;;;-14.71;72.65
73824;BME280;62154;54.914;73.444;2022-12-07T12:51:39;102557.84;;;-14.79;73.03
73824;BME280;62154;54.914;73.444;2022-12-07T13:02:34;102496.72;;;-15.33;72.94
73824;BME280;62154;54.914;73.444;2022-12-07T13:05:16;102557.88;;;-15.00;72.82
73824;BME280;62154;54.914;73.444;2022-12-07T13:13:04;102547.22;;;-15.05;72.82
73824;BME280;62154;54.914;73.444;2022-12-07T13:18:36;102458.66;;;-15.77;72.85
73824;BME280;62154;54.914;73.444;2022-12-07T13:28:47;102551.69;;;-15.22;72.72
73824;BME280;62154;54.914;73.444;2022-12-07T13:33:48;102547.28;;;-15.30;72.62
73824;BME280;62154;54.914;73.444;2022-12-07T13:36:27;102486.13;;;-15.68;72.68
73824;BME280;62154;54.914;73.444;2022-12-07T13:39:00;102494.09;;;-15.68;72.67
73824;BME280;62154;54.914;73.444;2022-12-07T13:41:41;102530.41;;;-15.44;72.39
73824;BME280;62154;54.914;73.444;2022-12-07T13:44:15;102542.84;;;-15.43;72.52
73824;BME280;62154;54.914;73.444;2022-12-07T13:47:12;102542.84;;;-15.51;72.70
73824;BME280;62154;54.914;73.444;2022-12-07T13:49:49;102540.19;;;-15.51;72.96
73824;BME280;62154;54.914;73.444;2022-12-07T13:55:14;102542.81;;;-15.42;73.08
73824;BME280;62154;54.914;73.444;2022-12-07T13:57:49;102470.19;;;-15.88;72.92
73824;BME280;62154;54.914;73.444;2022-12-07T14:00:20;102533.06;;;-15.50;73.09
73824;BME280;62154;54.914;73.444;2022-12-07T14:02:59;102538.41;;;-15.58;73.03
73824;BME280;62154;54.914;73.444;2022-12-07T14:05:34;102534.84;;;-15.62;73.34
73824;BME280;62154;54.914;73.444;2022-12-07T14:10:57;102533.06;;;-15.78;73.61
73824;BME280;62154;54.914;73.444;2022-12-07T14:15:56;102525.09;;;-15.73;74.08
73824;BME280;62154;54.914;73.444;2022-12-07T14:18:40;102530.41;;;-15.75;74.03
73824;BME280;62154;54.914;73.444;2022-12-07T14:23:41;102525.09;;;-15.72;74.09
73824;BME280;62154;54.914;73.444;2022-12-07T14:26:19;102521.56;;;-15.80;73.80
73824;BME280;62154;54.914;73.444;2022-12-07T14:28:47;102535.75;;;-15.69;73.95
73824;BME280;62154;54.914;73.444;2022-12-07T14:31:21;102519.81;;;-15.81;73.51
73824;BME280;62154;54.914;73.444;2022-12-07T14:33:51;102503.88;;;-15.90;73.46
73824;BME280;62154;54.914;73.444;2022-12-07T14:36:18;102526.00;;;-15.88;73.71
73824;BME280;62154;54.914;73.444;2022-12-07T14:38:48;102534.88;;;-15.88;73.92
73824;BME280;62154;54.914;73.444;2022-12-07T14:41:19;102493.19;;;-16.25;73.94
73824;BME280;62154;54.914;73.444;2022-12-07T14:44:13;102523.31;;;-16.01;73.74
73824;BME280;62154;54.914;73.444;2022-12-07T14:46:50;102522.41;;;-16.06;74.08
73824;BME280;62154;54.914;73.444;2022-12-07T14:49:18;102478.09;;;-16.30;74.02
73824;BME280;62154;54.914;73.444;2022-12-07T14:51:47;102446.19;;;-16.53;73.74
73824;BME280;62154;54.914;73.444;2022-12-07T14:54:17;102455.03;;;-16.56;73.64
73824;BME280;62154;54.914;73.444;2022-12-07T14:56:46;102517.97;;;-16.18;73.92
73824;BME280;62154;54.914;73.444;2022-12-07T14:59:20;102525.03;;;-16.20;73.82
73824;BME280;62154;54.914;73.444;2022-12-07T15:01:49;102530.38;;;-16.23;74.13
73824;BME280;62154;54.914;73.444;2022-12-07T15:04:16;102522.38;;;-16.29;74.17
73824;BME280;62154;54.914;73.444;2022-12-07T15:06:57;102510.84;;;-16.36;74.04
73824;BME280;62154;54.914;73.444;2022-12-07T15:09:28;102409.81;;;-16.98;74.15
73824;BME280;62154;54.914;73.444;2022-12-07T15:11:55;102505.50;;;-16.45;73.93
73824;BME280;62154;54.914;73.444;2022-12-07T15:14:24;102433.69;;;-16.90;74.19
73824;BME280;62154;54.914;73.444;2022-12-07T15:16:56;102526.72;;;-16.54;74.28